sensor_id;sensor_type;location;lat;lon;timestamp;pressure;altitude;pressure_sealevel;temperature;humidity
13235;BME280;6683;48.506;9.050;2023-05-10T00:00:13;97475.78;;;16.86;77.27
13235;BME280;6683;48.506;9.050;2023-05-10T00:03:16;97476.28;;;16.83;77.19
13235;BME280;6683;48.506;9.050;2023-05-10T00:06:18;97474.34;;;16.78;77.07
13235;BME280;6683;48.506;9.050;2023-05-10T00:09:21;97473.22;;;16.74;77.02
13235;BME280;6683;48.506;9.050;2023-05-10T00:12:24;97474.75;;;16.70;77.33
13235;BME280;6683;48.506;9.050;2023-05-10T00:15:27;97463.78;;;16.66;77.19
13235;BME280;6683;48.506;9.050;2023-05-10T00:18:31;97469.56;;;16.63;77.31
13235;BME280;6683;48.506;9.050;2023-05-10T00:21:33;97471.69;;;16.61;77.20
13235;BME280;6683;48.506;9.050;2023-05-10T00:24:36;97474.59;;;16.60;77.48
13235;BME280;6683;48.506;9.050;2023-05-10T00:27:39;97481.19;;;16.57;77.34
13235;BME280;6683;48.506;9.050;2023-05-10T00:30:42;97484.91;;;16.56;77.35
13235;BME280;6683;48.506;9.050;2023-05-10T00:33:44;97476.03;;;16.51;77.12
13235;BME280;6683;48.506;9.050;2023-05-10T00:36:46;97477.28;;;16.48;77.33
13235;BME280;6683;48.506;9.050;2023-05-10T00:39:48;97484.38;;;16.43;77.25
13235;BME280;6683;48.506;9.050;2023-05-10T00:42:52;97496.31;;;16.40;77.58
13235;BME280;6683;48.506;9.050;2023-05-10T00:45:55;97493.91;;;16.39;77.57
13235;BME280;6683;48.506;9.050;2023-05-10T00:48:57;97502.16;;;16.37;77.70
13235;BME280;6683;48.506;9.050;2023-05-10T00:52:00;97495.19;;;16.36;77.59
13235;BME280;6683;48.506;9.050;2023-05-10T00:55:05;97498.09;;;16.35;77.84
13235;BME280;6683;48.506;9.050;2023-05-10T00:58:09;97504.47;;;16.34;77.78
13235;BME280;6683;48.506;9.050;2023-05-10T01:01:12;97502.03;;;16.32;77.75
13235;BME280;6683;48.506;9.050;2023-05-10T01:04:15;97503.06;;;16.31;77.62
13235;BME280;6683;48.506;9.050;2023-05-10T01:07:18;97502.28;;;16.31;77.65
13235;BME280;6683;48.506;9.050;2023-05-10T01:10:20;97509.47;;;16.30;77.51
13235;BME280;6683;48.506;9.050;2023-05-10T01:13:32;97508.34;;;16.26;77.88
13235;BME280;6683;48.506;9.050;2023-05-10T01:16:38;97513.66;;;16.26;77.79
13235;BME280;6683;48.506;9.050;2023-05-10T01:19:41;97521.66;;;16.26;77.66
13235;BME280;6683;48.506;9.050;2023-05-10T01:23:17;97524.56;;;16.25;77.96
13235;BME280;6683;48.506;9.050;2023-05-10T01:27:14;97521.91;;;16.25;78.08
13235;BME280;6683;48.506;9.050;2023-05-10T01:30:55;97524.00;;;16.23;77.97
13235;BME280;6683;48.506;9.050;2023-05-10T01:34:08;97532.75;;;16.23;77.98
13235;BME280;6683;48.506;9.050;2023-05-10T01:37:17;97533.81;;;16.22;77.89
13235;BME280;6683;48.506;9.050;2023-05-10T01:40:29;97538.34;;;16.22;77.80
13235;BME280;6683;48.506;9.050;2023-05-10T01:43:42;97539.59;;;16.19;77.84
13235;BME280;6683;48.506;9.050;2023-05-10T01:47:01;97543.09;;;16.20;77.93
13235;BME280;6683;48.506;9.050;2023-05-10T01:50:14;97542.28;;;16.19;77.92
13235;BME280;6683;48.506;9.050;2023-05-10T01:53:19;97550.50;;;16.18;77.61
13235;BME280;6683;48.506;9.050;2023-05-10T01:56:25;97547.03;;;16.17;77.80
13235;BME280;6683;48.506;9.050;2023-05-10T01:59:33;97555.00;;;16.17;77.68
13235;BME280;6683;48.506;9.050;2023-05-10T02:02:38;97555.00;;;16.17;77.70
13235;BME280;6683;48.506;9.050;2023-05-10T02:05:45;97553.41;;;16.16;77.79
13235;BME280;6683;48.506;9.050;2023-05-10T02:08:50;97565.91;;;16.16;77.65
13235;BME280;6683;48.506;9.050;2023-05-10T02:11:54;97575.19;;;16.13;77.57
13235;BME280;6683;48.506;9.050;2023-05-10T02:14:58;97577.50;;;16.10;77.54
13235;BME280;6683;48.506;9.050;2023-05-10T02:18:02;97582.25;;;16.08;77.45
13235;BME280;6683;48.506;9.050;2023-05-10T02:21:08;97572.88;;;16.05;77.53
13235;BME280;6683;48.506;9.050;2023-05-10T02:24:12;97577.63;;;16.03;77.59
13235;BME280;6683;48.506;9.050;2023-05-10T02:27:16;97582.41;;;16.01;77.57
13235;BME280;6683;48.506;9.050;2023-05-10T02:30:19;97584.25;;;16.00;77.57
13235;BME280;6683;48.506;9.050;2023-05-10T02:33:23;97592.47;;;15.99;77.72
13235;BME280;6683;48.506;9.050;2023-05-10T02:36:27;97588.19;;;15.98;77.90
13235;BME280;6683;48.506;9.050;2023-05-10T02:39:32;97586.56;;;15.97;77.70
13235;BME280;6683;48.506;9.050;2023-05-10T02:42:37;97591.56;;;15.93;77.60
13235;BME280;6683;48.506;9.050;2023-05-10T02:45:41;97586.44;;;15.92;77.55
13235;BME280;6683;48.506;9.050;2023-05-10T02:48:44;97588.78;;;15.88;77.36
13235;BME280;6683;48.506;9.050;2023-05-10T02:51:54;97582.56;;;15.83;77.16
13235;BME280;6683;48.506;9.050;2023-05-10T02:55:02;97586.94;;;15.77;77.28
13235;BME280;6683;48.506;9.050;2023-05-10T02:58:07;97592.75;;;15.74;77.44
13235;BME280;6683;48.506;9.050;2023-05-10T03:01:09;97591.59;;;15.70;77.33
13235;BME280;6683;48.506;9.050;2023-05-10T03:04:12;97591.03;;;15.68;77.57
13235;BME280;6683;48.506;9.050;2023-05-10T03:07:16;97586.72;;;15.67;77.57
13235;BME280;6683;48.506;9.050;2023-05-10T03:10:21;97590.44;;;15.66;77.63
13235;BME280;6683;48.506;9.050;2023-05-10T03:13:42;97593.91;;;15.67;77.86
13235;BME280;6683;48.506;9.050;2023-05-10T03:16:52;97590.44;;;15.66;77.56
13235;BME280;6683;48.506;9.050;2023-05-10T03:19:56;97592.88;;;15.68;77.63
13235;BME280;6683;48.506;9.050;2023-05-10T03:23:07;97595.78;;;15.66;77.52
13235;BME280;6683;48.506;9.050;2023-05-10T03:26:17;97596.56;;;15.67;77.33
13235;BME280;6683;48.506;9.050;2023-05-10T03:29:23;97597.63;;;15.66;77.31
13235;BME280;6683;48.506;9.050;2023-05-10T03:32:29;97590.91;;;15.63;77.53
13235;BME280;6683;48.506;9.050;2023-05-10T03:35:32;97605.84;;;15.64;77.42
13235;BME280;6683;48.506;9.050;2023-05-10T03:38:36;97603.38;;;15.63;77.37
13235;BME280;6683;48.506;9.050;2023-05-10T03:41:38;97604.19;;;15.63;77.36
13235;BME280;6683;48.506;9.050;2023-05-10T03:44:41;97599.13;;;15.62;77.46
13235;BME280;6683;48.506;9.050;2023-05-10T03:47:43;97608.13;;;15.61;77.49
13235;BME280;6683;48.506;9.050;2023-05-10T03:50:45;97613.44;;;15.61;77.50
13235;BME280;6683;48.506;9.050;2023-05-10T03:53:51;97609.19;;;15.60;77.56
13235;BME280;6683;48.506;9.050;2023-05-10T03:56:53;97606.28;;;15.61;77.62
13235;BME280;6683;48.506;9.050;2023-05-10T03:59:56;97607.94;;;15.62;77.58
13235;BME280;6683;48.506;9.050;2023-05-10T04:02:58;97600.72;;;15.63;77.63
13235;BME280;6683;48.506;9.050;2023-05-10T04:06:02;97613.00;;;15.64;77.54
13235;BME280;6683;48.506;9.050;2023-05-10T04:09:06;97616.69;;;15.63;77.51
13235;BME280;6683;48.506;9.050;2023-05-10T04:12:09;97605.25;;;15.62;77.50
13235;BME280;6683;48.506;9.050;2023-05-10T04:15:11;97607.09;;;15.62;77.61
13235;BME280;6683;48.506;9.050;2023-05-10T04:18:14;97610.78;;;15.61;77.75
13235;BME280;6683;48.506;9.050;2023-05-10T04:21:17;97613.44;;;15.61;77.65
13235;BME280;6683;48.506;9.050;2023-05-10T04:24:22;97619.59;;;15.61;77.78
13235;BME280;6683;48.506;9.050;2023-05-10T04:27:24;97616.69;;;15.63;77.91
13235;BME280;6683;48.506;9.050;2023-05-10T04:30:27;97626.06;;;15.65;77.86
13235;BME280;6683;48.506;9.050;2023-05-10T04:33:30;97631.16;;;15.67;77.66
13235;BME280;6683;48.506;9.050;2023-05-10T04:36:33;97623.75;;;15.69;77.71
13235;BME280;6683;48.506;9.050;2023-05-10T04:39:43;97630.94;;;15.68;77.83
13235;BME280;6683;48.506;9.050;2023-05-10T04:43:00;97630.13;;;15.68;77.58
13235;BME280;6683;48.506;9.050;2023-05-10T04:46:03;97633.81;;;15.67;77.54
13235;BME280;6683;48.506;9.050;2023-05-10T04:49:05;97634.88;;;15.66;77.74
13235;BME280;6683;48.506;9.050;2023-05-10T04:52:10;97633.22;;;15.65;77.61
13235;BME280;6683;48.506;9.050;2023-05-10T04:55:15;97627.56;;;15.61;77.76
13235;BME280;6683;48.506;9.050;2023-05-10T04:58:20;97637.53;;;15.66;77.69
13235;BME280;6683;48.506;9.050;2023-05-10T05:01:24;97643.41;;;15.68;77.81
13235;BME280;6683;48.506;9.050;2023-05-10T05:04:27;97634.16;;;15.70;77.62
13235;BME280;6683;48.506;9.050;2023-05-10T05:07:31;97638.69;;;15.70;77.61
13235;BME280;6683;48.506;9.050;2023-05-10T05:10:38;97634.97;;;15.71;77.95
13235;BME280;6683;48.506;9.050;2023-05-10T05:13:42;97645.50;;;15.77;77.74
13235;BME280;6683;48.506;9.050;2023-05-10T05:16:45;97642.63;;;15.79;77.77
13235;BME280;6683;48.506;9.050;2023-05-10T05:19:47;97645.63;;;15.82;77.83
13235;BME280;6683;48.506;9.050;2023-05-10T05:22:50;97652.31;;;15.85;77.83
13235;BME280;6683;48.506;9.050;2023-05-10T05:25:55;97655.19;;;15.83;77.87
13235;BME280;6683;48.506;9.050;2023-05-10T05:28:58;97658.81;;;15.89;77.70
13235;BME280;6683;48.506;9.050;2023-05-10T05:32:06;97660.41;;;15.90;77.57
13235;BME280;6683;48.506;9.050;2023-05-10T05:35:12;97656.34;;;15.87;77.47
13235;BME280;6683;48.506;9.050;2023-05-10T05:38:31;97665.50;;;15.91;77.56
13235;BME280;6683;48.506;9.050;2023-05-10T05:41:53;97672.94;;;15.89;77.39
13235;BME280;6683;48.506;9.050;2023-05-10T05:44:57;97667.81;;;15.88;77.44
13235;BME280;6683;48.506;9.050;2023-05-10T05:48:00;97667.59;;;15.89;77.49
13235;BME280;6683;48.506;9.050;2023-05-10T05:51:05;97670.47;;;15.88;77.57
13235;BME280;6683;48.506;9.050;2023-05-10T05:54:08;97675.78;;;15.88;77.55
13235;BME280;6683;48.506;9.050;2023-05-10T05:57:35;97679.84;;;15.90;78.00
13235;BME280;6683;48.506;9.050;2023-05-10T06:00:44;97674.28;;;15.92;77.75
13235;BME280;6683;48.506;9.050;2023-05-10T06:03:52;97674.66;;;15.95;77.69
13235;BME280;6683;48.506;9.050;2023-05-10T06:07:15;97675.81;;;15.99;77.94
13235;BME280;6683;48.506;9.050;2023-05-10T06:10:20;97675.91;;;16.05;77.89
13235;BME280;6683;48.506;9.050;2023-05-10T06:13:57;97678.34;;;16.06;77.95
13235;BME280;6683;48.506;9.050;2023-05-10T06:18:00;97679.50;;;16.10;77.52
13235;BME280;6683;48.506;9.050;2023-05-10T06:21:16;97687.25;;;16.12;77.58
13235;BME280;6683;48.506;9.050;2023-05-10T06:24:19;97702.16;;;16.13;77.66
13235;BME280;6683;48.506;9.050;2023-05-10T06:27:23;97697.19;;;16.16;77.86
13235;BME280;6683;48.506;9.050;2023-05-10T06:30:27;97700.44;;;16.18;77.81
13235;BME280;6683;48.506;9.050;2023-05-10T06:33:31;97702.97;;;16.25;78.01
13235;BME280;6683;48.506;9.050;2023-05-10T06:36:34;97706.53;;;16.30;77.93
13235;BME280;6683;48.506;9.050;2023-05-10T06:39:36;97702.13;;;16.36;77.84
13235;BME280;6683;48.506;9.050;2023-05-10T06:42:39;97708.59;;;16.40;77.83
13235;BME280;6683;48.506;9.050;2023-05-10T06:45:43;97699.34;;;16.42;77.61
13235;BME280;6683;48.506;9.050;2023-05-10T06:48:46;97709.53;;;16.45;77.65
13235;BME280;6683;48.506;9.050;2023-05-10T06:51:48;97711.13;;;16.46;77.72
13235;BME280;6683;48.506;9.050;2023-05-10T06:54:51;97717.66;;;16.50;78.01
13235;BME280;6683;48.506;9.050;2023-05-10T06:57:55;97711.28;;;16.51;77.56
13235;BME280;6683;48.506;9.050;2023-05-10T07:10:11;97714.28;;;16.43;77.69
13235;BME280;6683;48.506;9.050;2023-05-10T07:13:58;97716.94;;;16.43;77.46
13235;BME280;6683;48.506;9.050;2023-05-10T07:21:32;97720.19;;;16.45;77.87
13235;BME280;6683;48.506;9.050;2023-05-10T07:24:37;97716.72;;;16.45;77.76
13235;BME280;6683;48.506;9.050;2023-05-10T07:27:43;97719.94;;;16.47;77.68
13235;BME280;6683;48.506;9.050;2023-05-10T07:30:46;97719.53;;;16.50;77.63
13235;BME280;6683;48.506;9.050;2023-05-10T07:33:50;97721.69;;;16.53;77.60
13235;BME280;6683;48.506;9.050;2023-05-10T07:36:53;97716.50;;;16.58;77.93
13235;BME280;6683;48.506;9.050;2023-05-10T07:39:57;97720.28;;;16.62;77.75
13235;BME280;6683;48.506;9.050;2023-05-10T07:43:05;97706.47;;;16.65;77.82
13235;BME280;6683;48.506;9.050;2023-05-10T07:46:08;97715.41;;;16.70;77.62
13235;BME280;6683;48.506;9.050;2023-05-10T07:49:11;97719.78;;;16.76;77.61
13235;BME280;6683;48.506;9.050;2023-05-10T07:52:14;97718.03;;;16.82;77.57
13235;BME280;6683;48.506;9.050;2023-05-10T07:55:18;97711.97;;;16.87;77.85
13235;BME280;6683;48.506;9.050;2023-05-10T07:58:23;97723.06;;;16.95;77.46
13235;BME280;6683;48.506;9.050;2023-05-10T08:01:29;97717.34;;;17.03;77.29
13235;BME280;6683;48.506;9.050;2023-05-10T08:04:32;97723.13;;;17.12;77.28
13235;BME280;6683;48.506;9.050;2023-05-10T08:07:37;97721.44;;;17.22;77.19
13235;BME280;6683;48.506;9.050;2023-05-10T08:10:40;97717.56;;;17.30;77.09
13235;BME280;6683;48.506;9.050;2023-05-10T08:13:44;97732.72;;;17.41;77.30
13235;BME280;6683;48.506;9.050;2023-05-10T08:16:47;97724.91;;;17.51;77.14
13235;BME280;6683;48.506;9.050;2023-05-10T08:19:50;97725.06;;;17.61;76.78
13235;BME280;6683;48.506;9.050;2023-05-10T08:22:53;97719.09;;;17.71;76.80
13235;BME280;6683;48.506;9.050;2023-05-10T08:26:02;97732.59;;;17.81;76.85
13235;BME280;6683;48.506;9.050;2023-05-10T08:29:06;97718.56;;;17.90;76.78
13235;BME280;6683;48.506;9.050;2023-05-10T08:32:09;97727.88;;;18.04;76.32
13235;BME280;6683;48.506;9.050;2023-05-10T08:35:11;97729.38;;;18.17;76.59
13235;BME280;6683;48.506;9.050;2023-05-10T08:38:15;97732.22;;;18.27;76.15
13235;BME280;6683;48.506;9.050;2023-05-10T08:41:19;97732.59;;;18.35;75.90
13235;BME280;6683;48.506;9.050;2023-05-10T08:44:23;97732.41;;;18.42;75.90
13235;BME280;6683;48.506;9.050;2023-05-10T08:47:27;97733.06;;;18.49;75.87
13235;BME280;6683;48.506;9.050;2023-05-10T08:50:32;97737.94;;;18.52;75.64
13235;BME280;6683;48.506;9.050;2023-05-10T08:53:36;97742.22;;;18.53;75.66
13235;BME280;6683;48.506;9.050;2023-05-10T08:56:39;97747.81;;;18.52;75.46
13235;BME280;6683;48.506;9.050;2023-05-10T08:59:43;97742.47;;;18.52;75.58
13235;BME280;6683;48.506;9.050;2023-05-10T09:02:46;97746.25;;;18.56;75.82
13235;BME280;6683;48.506;9.050;2023-05-10T09:05:50;97749.78;;;18.61;75.60
13235;BME280;6683;48.506;9.050;2023-05-10T09:08:52;97756.81;;;18.67;75.63
13235;BME280;6683;48.506;9.050;2023-05-10T09:11:55;97756.63;;;18.74;75.60
13235;BME280;6683;48.506;9.050;2023-05-10T09:15:00;97757.75;;;18.78;75.39
13235;BME280;6683;48.506;9.050;2023-05-10T09:18:02;97763.19;;;18.83;75.25
13235;BME280;6683;48.506;9.050;2023-05-10T09:21:05;97756.00;;;18.88;75.32
13235;BME280;6683;48.506;9.050;2023-05-10T09:24:09;97760.44;;;18.99;75.51
13235;BME280;6683;48.506;9.050;2023-05-10T09:27:11;97754.19;;;19.15;75.64
13235;BME280;6683;48.506;9.050;2023-05-10T09:30:24;97762.94;;;19.33;75.53
13235;BME280;6683;48.506;9.050;2023-05-10T09:33:27;97757.75;;;19.48;75.26
13235;BME280;6683;48.506;9.050;2023-05-10T09:36:29;97757.94;;;19.68;75.44
13235;BME280;6683;48.506;9.050;2023-05-10T09:39:33;97756.16;;;19.78;75.11
13235;BME280;6683;48.506;9.050;2023-05-10T09:42:35;97758.88;;;19.83;74.76
13235;BME280;6683;48.506;9.050;2023-05-10T09:45:41;97758.88;;;19.83;74.56
13235;BME280;6683;48.506;9.050;2023-05-10T09:48:46;97763.69;;;19.81;74.08
13235;BME280;6683;48.506;9.050;2023-05-10T09:52:01;97766.31;;;19.76;74.16
13235;BME280;6683;48.506;9.050;2023-05-10T09:55:05;97778.84;;;19.71;73.68
13235;BME280;6683;48.506;9.050;2023-05-10T09:58:08;97768.81;;;19.56;73.33
13235;BME280;6683;48.506;9.050;2023-05-10T10:01:13;97783.91;;;19.41;73.08
13235;BME280;6683;48.506;9.050;2023-05-10T10:04:16;97779.44;;;19.25;73.18
13235;BME280;6683;48.506;9.050;2023-05-10T10:07:23;97782.75;;;19.10;73.23
13235;BME280;6683;48.506;9.050;2023-05-10T10:10:27;97782.00;;;18.93;73.02
13235;BME280;6683;48.506;9.050;2023-05-10T10:13:30;97780.03;;;18.83;73.49
13235;BME280;6683;48.506;9.050;2023-05-10T10:16:34;97778.59;;;18.76;73.50
13235;BME280;6683;48.506;9.050;2023-05-10T10:19:36;97777.47;;;18.72;73.94
13235;BME280;6683;48.506;9.050;2023-05-10T10:22:39;97784.44;;;18.73;74.21
13235;BME280;6683;48.506;9.050;2023-05-10T10:25:42;97771.31;;;18.71;74.13
13235;BME280;6683;48.506;9.050;2023-05-10T10:28:54;97773.66;;;18.68;74.47
13235;BME280;6683;48.506;9.050;2023-05-10T10:32:10;97763.06;;;18.73;75.29
13235;BME280;6683;48.506;9.050;2023-05-10T10:35:15;97763.44;;;18.81;74.76
13235;BME280;6683;48.506;9.050;2023-05-10T10:38:18;97767.59;;;18.94;74.97
13235;BME280;6683;48.506;9.050;2023-05-10T10:41:29;97766.69;;;19.10;75.23
13235;BME280;6683;48.506;9.050;2023-05-10T10:44:38;97764.19;;;19.25;75.01
13235;BME280;6683;48.506;9.050;2023-05-10T10:47:44;97759.88;;;19.46;75.05
13235;BME280;6683;48.506;9.050;2023-05-10T10:50:47;97753.13;;;19.70;74.95
13235;BME280;6683;48.506;9.050;2023-05-10T10:53:49;97758.91;;;19.88;74.54
13235;BME280;6683;48.506;9.050;2023-05-10T10:57:10;97771.91;;;20.07;74.72
13235;BME280;6683;48.506;9.050;2023-05-10T11:00:37;97764.16;;;20.10;73.19
13235;BME280;6683;48.506;9.050;2023-05-10T11:04:18;97769.53;;;19.78;71.81
13235;BME280;6683;48.506;9.050;2023-05-10T11:07:21;97786.69;;;19.51;71.62
13235;BME280;6683;48.506;9.050;2023-05-10T11:10:25;97787.75;;;19.28;71.82
13235;BME280;6683;48.506;9.050;2023-05-10T11:13:29;97788.41;;;19.13;72.33
13235;BME280;6683;48.506;9.050;2023-05-10T11:16:41;97794.69;;;19.02;72.39
13235;BME280;6683;48.506;9.050;2023-05-10T11:20:07;97799.13;;;18.92;72.57
13235;BME280;6683;48.506;9.050;2023-05-10T11:23:14;97823.31;;;18.80;72.00
13235;BME280;6683;48.506;9.050;2023-05-10T11:26:18;97818.88;;;18.69;71.99
13235;BME280;6683;48.506;9.050;2023-05-10T11:29:23;97818.72;;;18.59;71.93
13235;BME280;6683;48.506;9.050;2023-05-10T11:32:27;97826.38;;;18.51;71.71
13235;BME280;6683;48.506;9.050;2023-05-10T11:35:31;97824.50;;;18.34;71.90
13235;BME280;6683;48.506;9.050;2023-05-10T11:38:38;97822.50;;;18.25;71.80
13235;BME280;6683;48.506;9.050;2023-05-10T11:41:40;97827.59;;;18.10;71.60
13235;BME280;6683;48.506;9.050;2023-05-10T11:44:45;97830.41;;;18.03;72.21
13235;BME280;6683;48.506;9.050;2023-05-10T11:47:49;97836.97;;;17.96;71.89
13235;BME280;6683;48.506;9.050;2023-05-10T11:50:53;97837.44;;;17.93;72.49
13235;BME280;6683;48.506;9.050;2023-05-10T11:53:57;97828.41;;;17.94;72.61
13235;BME280;6683;48.506;9.050;2023-05-10T11:57:00;97826.22;;;18.07;73.00
13235;BME280;6683;48.506;9.050;2023-05-10T12:00:04;97833.66;;;18.22;73.13
13235;BME280;6683;48.506;9.050;2023-05-10T12:03:06;97833.06;;;18.36;73.15
13235;BME280;6683;48.506;9.050;2023-05-10T12:06:11;97834.38;;;18.51;73.04
13235;BME280;6683;48.506;9.050;2023-05-10T12:09:13;97832.59;;;18.56;72.74
13235;BME280;6683;48.506;9.050;2023-05-10T12:12:16;97839.38;;;18.64;72.58
13235;BME280;6683;48.506;9.050;2023-05-10T12:15:21;97837.28;;;18.66;72.18
13235;BME280;6683;48.506;9.050;2023-05-10T12:18:24;97835.13;;;18.63;72.08
13235;BME280;6683;48.506;9.050;2023-05-10T12:21:29;97841.09;;;18.53;72.09
13235;BME280;6683;48.506;9.050;2023-05-10T12:24:34;97848.00;;;18.49;72.57
13235;BME280;6683;48.506;9.050;2023-05-10T12:27:37;97844.06;;;18.40;72.56
13235;BME280;6683;48.506;9.050;2023-05-10T12:30:39;97842.94;;;18.36;72.86
13235;BME280;6683;48.506;9.050;2023-05-10T12:33:43;97847.97;;;18.32;72.99
13235;BME280;6683;48.506;9.050;2023-05-10T12:36:50;97846.59;;;18.30;73.02
13235;BME280;6683;48.506;9.050;2023-05-10T12:39:54;97845.56;;;18.31;73.04
13235;BME280;6683;48.506;9.050;2023-05-10T12:43:06;97843.94;;;18.30;73.43
13235;BME280;6683;48.506;9.050;2023-05-10T12:46:10;97837.38;;;18.38;73.43
13235;BME280;6683;48.506;9.050;2023-05-10T12:49:13;97841.28;;;18.47;73.24
13235;BME280;6683;48.506;9.050;2023-05-10T12:52:17;97837.31;;;18.49;72.98
13235;BME280;6683;48.506;9.050;2023-05-10T12:55:19;97834.72;;;18.54;72.97
13235;BME280;6683;48.506;9.050;2023-05-10T12:58:22;97833.00;;;18.65;73.03
13235;BME280;6683;48.506;9.050;2023-05-10T13:01:24;97828.34;;;18.77;72.73
13235;BME280;6683;48.506;9.050;2023-05-10T13:04:26;97829.28;;;18.87;72.58
13235;BME280;6683;48.506;9.050;2023-05-10T13:07:30;97833.22;;;19.01;72.51
13235;BME280;6683;48.506;9.050;2023-05-10T13:10:33;97827.97;;;19.11;72.41
13235;BME280;6683;48.506;9.050;2023-05-10T13:13:35;97828.34;;;19.20;72.24
13235;BME280;6683;48.506;9.050;2023-05-10T13:16:37;97831.09;;;19.25;71.91
13235;BME280;6683;48.506;9.050;2023-05-10T13:20:00;97839.72;;;19.32;72.11
13235;BME280;6683;48.506;9.050;2023-05-10T13:23:05;97833.72;;;19.42;72.00
13235;BME280;6683;48.506;9.050;2023-05-10T13:26:08;97824.50;;;19.54;71.56
13235;BME280;6683;48.506;9.050;2023-05-10T13:29:10;97830.19;;;19.63;71.25
13235;BME280;6683;48.506;9.050;2023-05-10T13:32:12;97818.50;;;19.74;71.52
13235;BME280;6683;48.506;9.050;2023-05-10T13:35:15;97822.34;;;19.83;70.93
13235;BME280;6683;48.506;9.050;2023-05-10T13:38:18;97816.47;;;19.86;70.50
13235;BME280;6683;48.506;9.050;2023-05-10T13:41:21;97811.91;;;19.86;70.17
13235;BME280;6683;48.506;9.050;2023-05-10T13:44:23;97809.78;;;19.88;70.27
13235;BME280;6683;48.506;9.050;2023-05-10T13:47:26;97805.03;;;19.96;69.95
13235;BME280;6683;48.506;9.050;2023-05-10T13:50:30;97810.13;;;19.97;69.63
13235;BME280;6683;48.506;9.050;2023-05-10T13:53:33;97808.00;;;19.99;69.89
13235;BME280;6683;48.506;9.050;2023-05-10T13:56:36;97803.75;;;20.03;69.81
13235;BME280;6683;48.506;9.050;2023-05-10T13:59:38;97805.38;;;20.04;69.66
13235;BME280;6683;48.506;9.050;2023-05-10T14:02:40;97802.19;;;20.07;69.55
13235;BME280;6683;48.506;9.050;2023-05-10T14:05:43;97800.66;;;20.16;69.44
13235;BME280;6683;48.506;9.050;2023-05-10T14:08:47;97797.78;;;20.23;69.48
13235;BME280;6683;48.506;9.050;2023-05-10T14:11:49;97793.25;;;20.28;69.34
13235;BME280;6683;48.506;9.050;2023-05-10T14:14:52;97796.22;;;20.32;68.97
13235;BME280;6683;48.506;9.050;2023-05-10T14:17:54;97786.34;;;20.37;69.01
13235;BME280;6683;48.506;9.050;2023-05-10T14:20:57;97786.09;;;20.39;68.76
13235;BME280;6683;48.506;9.050;2023-05-10T14:24:01;97786.63;;;20.41;68.63
13235;BME280;6683;48.506;9.050;2023-05-10T14:27:03;97777.81;;;20.45;68.73
13235;BME280;6683;48.506;9.050;2023-05-10T14:30:08;97780.25;;;20.47;68.34
13235;BME280;6683;48.506;9.050;2023-05-10T14:33:10;97774.03;;;20.41;67.83
13235;BME280;6683;48.506;9.050;2023-05-10T14:36:13;97780.44;;;20.35;67.54
13235;BME280;6683;48.506;9.050;2023-05-10T14:39:17;97779.34;;;20.31;67.99
13235;BME280;6683;48.506;9.050;2023-05-10T14:42:19;97786.28;;;20.27;67.63
13235;BME280;6683;48.506;9.050;2023-05-10T14:45:22;97780.88;;;20.22;67.68
13235;BME280;6683;48.506;9.050;2023-05-10T14:48:24;97780.56;;;20.19;67.55
13235;BME280;6683;48.506;9.050;2023-05-10T14:51:27;97782.69;;;20.17;67.77
13235;BME280;6683;48.506;9.050;2023-05-10T14:54:31;97776.25;;;20.18;67.73
13235;BME280;6683;48.506;9.050;2023-05-10T14:57:34;97781.88;;;20.16;67.45
13235;BME280;6683;48.506;9.050;2023-05-10T15:00:36;97773.00;;;20.11;67.34
13235;BME280;6683;48.506;9.050;2023-05-10T15:03:39;97772.47;;;20.09;67.60
13235;BME280;6683;48.506;9.050;2023-05-10T15:06:41;97775.69;;;20.11;67.54
13235;BME280;6683;48.506;9.050;2023-05-10T15:09:44;97770.34;;;20.11;67.51
13235;BME280;6683;48.506;9.050;2023-05-10T15:12:47;97780.53;;;20.14;67.55
13235;BME280;6683;48.506;9.050;2023-05-10T15:15:50;97775.09;;;20.04;67.37
13235;BME280;6683;48.506;9.050;2023-05-10T15:18:52;97778.81;;;20.03;67.97
13235;BME280;6683;48.506;9.050;2023-05-10T15:21:54;97776.16;;;20.03;67.49
13235;BME280;6683;48.506;9.050;2023-05-10T15:24:58;97777.78;;;20.04;67.97
13235;BME280;6683;48.506;9.050;2023-05-10T15:28:01;97785.81;;;20.04;67.41
13235;BME280;6683;48.506;9.050;2023-05-10T15:31:03;97786.31;;;20.01;67.38
13235;BME280;6683;48.506;9.050;2023-05-10T15:34:06;97790.06;;;20.00;67.56
13235;BME280;6683;48.506;9.050;2023-05-10T15:37:08;97793.25;;;19.97;67.28
13235;BME280;6683;48.506;9.050;2023-05-10T15:40:13;97785.75;;;19.93;67.45
13235;BME280;6683;48.506;9.050;2023-05-10T15:43:15;97789.47;;;19.92;67.37
13235;BME280;6683;48.506;9.050;2023-05-10T15:46:17;97791.09;;;19.93;67.42
13235;BME280;6683;48.506;9.050;2023-05-10T15:49:20;97791.09;;;19.93;67.15
13235;BME280;6683;48.506;9.050;2023-05-10T15:52:23;97797.28;;;19.94;67.34
13235;BME280;6683;48.506;9.050;2023-05-10T15:55:27;97792.16;;;19.92;67.46
13235;BME280;6683;48.506;9.050;2023-05-10T15:58:30;97796.19;;;19.95;67.56
13235;BME280;6683;48.506;9.050;2023-05-10T16:01:32;97800.19;;;19.92;67.30
13235;BME280;6683;48.506;9.050;2023-05-10T16:04:35;97811.44;;;19.89;67.22
13235;BME280;6683;48.506;9.050;2023-05-10T16:07:37;97802.03;;;19.87;67.51
13235;BME280;6683;48.506;9.050;2023-05-10T16:10:42;97815.69;;;19.85;67.57
13235;BME280;6683;48.506;9.050;2023-05-10T16:13:45;97813.75;;;19.81;67.28
13235;BME280;6683;48.506;9.050;2023-05-10T16:16:48;97826.25;;;19.70;67.08
13235;BME280;6683;48.506;9.050;2023-05-10T16:19:51;97825.34;;;19.60;67.43
13235;BME280;6683;48.506;9.050;2023-05-10T16:22:53;97827.66;;;19.51;67.34
13235;BME280;6683;48.506;9.050;2023-05-10T16:25:57;97826.25;;;19.44;67.38
13235;BME280;6683;48.506;9.050;2023-05-10T16:28:59;97829.94;;;19.38;67.51
13235;BME280;6683;48.506;9.050;2023-05-10T16:32:02;97829.59;;;19.34;67.74
13235;BME280;6683;48.506;9.050;2023-05-10T16:35:06;97832.06;;;19.36;67.86
13235;BME280;6683;48.506;9.050;2023-05-10T16:38:08;97828.56;;;19.35;67.72
13235;BME280;6683;48.506;9.050;2023-05-10T16:41:12;97823.91;;;19.31;67.73
13235;BME280;6683;48.506;9.050;2023-05-10T16:44:15;97831.88;;;19.26;67.59
13235;BME280;6683;48.506;9.050;2023-05-10T16:47:17;97832.09;;;19.19;67.68